Paxinos, Pennsylvania
Current Conditions -  °F | °C
As of 11:53 AM on Thursday 18 Dec 2014 (Local Time) from KSEG Reporting Station
Overcast Overcast  
Wind Chill: -2°   Ceiling: 3400
Heat Index:   Visibility: 10mi
Dew Point: -6°   Wind: 13mph
Humidity: 57%   Direction: 290°WNW
Pressure: 30.08"   Gusts: 18mph
Location:  40.85°N, 76.59°W
Report Text: KSEG 181653Z AUTO 29011G16KT 10SM OVC034 02/M06 A3008 RMK AO2 SLP189 T00221056
Loading
Personal Weather Stations






























Interactive Weather Map New forecast layout! Learn more

10-Day Weather Forecast

Advertisements
Track Severe Weather on mobile